Time;durP1;ratioP1;P1;durP2;ratioP2;P2;SDS_P1;SDS_P2;PMS_P1;PMS_P2;Temp;Humidity;BMP_temperature;BMP_pressure;BME280_temperature;BME280_humidity;BME280_pressure;Samples;Min_cycle;Max_cycle;Signal;HPM_P1;HPM_P2
2021/05/25 00:00:33;;;;;;;0.25;0.10;;;13.10;99.90;;;12.59;91.31;100367.31;4954777;28;20058;-51
2021/05/25 00:03:02;;;;;;;0.38;0.10;;;13.10;99.90;;;12.70;90.48;100369.63;4970628;28;20159;-47
2021/05/25 00:05:30;;;;;;;2.25;0.03;;;13.10;99.90;;;12.73;89.71;100376.31;4972104;28;20034;-47
2021/05/25 00:07:57;;;;;;;0.40;0.10;;;13.20;99.90;;;12.72;89.81;100369.47;4969262;28;20034;-50
2021/05/25 00:10:29;;;;;;;0.32;0.10;;;13.20;99.90;;;12.69;90.28;100369.78;4969107;28;20075;-48
2021/05/25 00:12:58;;;;;;;1.15;0.15;;;13.20;99.90;;;12.67;90.57;100374.34;4971559;28;20083;-46
2021/05/25 00:15:27;;;;;;;1.88;0.10;;;13.20;99.90;;;12.70;90.09;100369.63;4970911;28;22172;-48
2021/05/25 00:17:53;;;;;;;0.60;0.00;;;13.20;99.90;;;12.68;89.84;100371.56;4969944;28;20395;-47
2021/05/25 00:20:23;;;;;;;0.88;0.00;;;13.20;99.90;;;12.65;89.92;100377.13;4971048;28;20122;-49
2021/05/25 00:22:49;;;;;;;0.25;0.00;;;13.20;99.90;;;12.61;90.17;100381.84;4971575;28;20041;-47
2021/05/25 00:25:17;;;;;;;2.80;0.10;;;13.10;99.90;;;12.60;90.27;100376.78;4969792;28;20035;-48
2021/05/25 00:27:44;;;;;;;0.45;0.10;;;13.10;99.90;;;12.60;90.31;100374.97;4971612;28;20027;-46
2021/05/25 00:30:14;;;;;;;0.20;0.00;;;13.10;99.90;;;12.59;90.24;100372.53;4968326;28;20059;-46
2021/05/25 00:32:41;;;;;;;0.52;0.03;;;13.10;99.90;;;12.53;90.49;100363.53;4969711;28;20089;-46
2021/05/25 00:35:08;;;;;;;0.55;0.03;;;13.10;99.90;;;12.49;90.72;100364.00;4971301;28;20038;-46
2021/05/25 00:37:34;;;;;;;2.72;0.05;;;13.10;99.90;;;12.48;90.65;100371.03;4970443;28;20198;-48
2021/05/25 00:40:00;;;;;;;0.65;0.00;;;13.10;99.90;;;12.48;90.54;100364.97;4970828;28;20386;-48
2021/05/25 00:42:26;;;;;;;3.35;0.10;;;13.00;99.90;;;12.45;90.81;100360.88;4971341;28;20055;-48
2021/05/25 00:44:53;;;;;;;0.10;0.00;;;13.00;99.90;;;12.46;90.94;100370.38;4970239;28;20045;-52
2021/05/25 00:47:30;;;;;;;0.25;0.00;;;13.00;99.90;;;12.47;90.79;100364.16;4953972;28;20035;-48
2021/05/25 00:50:10;;;;;;;3.15;0.10;;;13.00;99.90;;;12.49;90.56;100358.78;4967126;28;20267;-53
2021/05/25 00:52:47;;;;;;;2.38;0.10;;;13.00;99.90;;;12.49;90.61;100362.22;4966004;28;20394;-50
2021/05/25 00:55:25;;;;;;;0.40;0.10;;;13.00;99.90;;;12.47;90.92;100374.63;4971263;28;20430;-49
2021/05/25 00:57:54;;;;;;;0.30;0.10;;;13.10;99.90;;;12.46;90.92;100380.81;4969960;28;20125;-46
2021/05/25 01:00:39;;;;;;;0.32;0.20;;;13.00;99.90;;;12.44;91.19;100385.38;4970566;28;20042;-47
2021/05/25 01:03:11;;;;;;;1.40;0.20;;;13.00;99.90;;;12.37;91.87;100389.59;4969758;28;20046;-51
2021/05/25 01:05:37;;;;;;;1.85;0.20;;;12.90;99.90;;;12.34;92.40;100395.13;4970260;28;20043;-48
2021/05/25 01:08:07;;;;;;;2.35;0.10;;;12.90;99.90;;;12.32;93.28;100391.03;4970233;28;20125;-47
2021/05/25 01:10:41;;;;;;;1.83;0.20;;;12.90;99.90;;;12.32;93.44;100398.88;4969893;28;20058;-49
2021/05/25 01:14:09;;;;;;;1.67;0.20;;;12.90;99.90;;;12.29;93.69;100406.06;4969917;28;20134;-51
2021/05/25 01:16:03;;;;;;;2.50;0.20;;;12.90;99.90;;;12.33;93.95;100411.78;4956715;28;20061;-49
2021/05/25 01:18:29;;;;;;;0.90;0.10;;;12.90;99.90;;;12.33;93.79;100409.16;4951204;28;20387;-52
2021/05/25 01:20:55;;;;;;;0.85;0.20;;;12.90;99.90;;;12.34;94.13;100407.38;4967729;28;20038;-49
2021/05/25 01:23:21;;;;;;;1.40;0.20;;;12.90;99.90;;;12.35;94.06;100409.84;4969806;28;20039;-48
2021/05/25 01:25:48;;;;;;;1.00;0.17;;;12.90;99.90;;;12.37;94.03;100420.94;4969553;28;20186;-49
2021/05/25 01:28:19;;;;;;;0.82;0.28;;;12.90;99.90;;;12.37;94.26;100414.91;4970559;28;20073;-47
2021/05/25 01:30:50;;;;;;;3.92;0.20;;;12.90;99.90;;;12.37;94.47;100410.50;4969825;28;20394;-49
2021/05/25 01:33:18;;;;;;;2.38;0.20;;;12.90;99.90;;;12.42;94.38;100412.63;4970229;28;20039;-52
2021/05/25 01:35:44;;;;;;;2.20;0.35;;;12.90;99.90;;;12.40;94.29;100404.97;4969464;28;20351;-52
2021/05/25 01:38:13;;;;;;;12.00;0.43;;;13.00;99.90;;;12.41;94.11;100403.16;4969630;28;20039;-51
2021/05/25 01:40:41;;;;;;;1.25;0.30;;;13.00;99.90;;;12.43;94.12;100409.06;4966592;28;20026;-48
2021/05/25 01:43:08;;;;;;;1.80;0.40;;;13.00;99.90;;;12.42;94.04;100412.63;4969073;28;20070;-50
2021/05/25 01:45:36;;;;;;;1.13;0.20;;;13.00;99.90;;;12.41;94.20;100411.81;4968751;28;20096;-48
2021/05/25 01:48:06;;;;;;;0.68;0.30;;;13.00;99.90;;;12.43;93.89;100409.06;4970514;28;20030;-50
2021/05/25 01:50:34;;;;;;;0.50;0.20;;;13.00;99.90;;;12.40;93.67;100419.81;4968922;28;20194;-47
2021/05/25 01:53:10;;;;;;;4.20;0.20;;;13.00;99.90;;;12.36;93.57;100410.66;4970013;28;20121;-46
2021/05/25 01:55:48;;;;;;;2.63;0.10;;;12.90;99.90;;;12.35;93.25;100415.06;4969143;28;20043;-51
2021/05/25 01:58:25;;;;;;;0.38;0.00;;;12.90;99.90;;;12.33;93.03;100424.03;4970061;28;20035;-50
2021/05/25 02:01:05;;;;;;;2.70;0.10;;;12.90;99.90;;;12.30;93.13;100423.38;4966118;28;20050;-49
2021/05/25 02:03:32;;;;;;;0.32;0.05;;;12.90;99.90;;;12.32;93.16;100425.00;4950758;28;20415;-47
2021/05/25 02:05:58;;;;;;;1.55;0.10;;;12.90;99.90;;;12.32;92.79;100423.22;4969553;28;20039;-48
2021/05/25 02:08:25;;;;;;;0.25;0.10;;;12.90;99.90;;;12.34;92.89;100428.28;4969159;28;20125;-50
2021/05/25 02:10:57;;;;;;;0.77;0.05;;;12.80;99.90;;;12.35;93.12;100425.50;4968885;28;20102;-48
2021/05/25 02:13:25;;;;;;;0.10;0.00;;;12.80;99.90;;;12.36;92.76;100432.38;4969728;28;20043;-49
2021/05/25 02:15:59;;;;;;;2.35;0.08;;;12.90;99.90;;;12.35;92.49;100428.13;4967165;28;20458;-48
2021/05/25 02:18:31;;;;;;;0.60;0.10;;;12.90;99.90;;;12.34;92.50;100436.94;4969037;28;20121;-48
2021/05/25 02:21:02;;;;;;;1.85;0.10;;;12.90;99.90;;;12.30;92.72;100441.66;4949148;28;20042;-52
2021/05/25 02:23:29;;;;;;;0.95;0.15;;;12.90;99.90;;;12.29;92.86;100450.47;4950211;28;20737;-52
2021/05/25 02:25:56;;;;;;;4.20;0.30;;;12.90;99.90;;;12.24;92.85;100433.66;4969397;28;20043;-51
2021/05/25 02:28:22;;;;;;;0.35;0.10;;;12.80;99.90;;;12.18;93.19;100436.88;4967773;28;20135;-53
2021/05/25 02:30:49;;;;;;;4.20;0.10;;;12.80;99.90;;;12.14;93.08;100435.53;4968367;28;20027;-53
2021/05/25 02:33:18;;;;;;;1.60;0.10;;;12.70;99.90;;;12.10;93.59;100436.81;4969405;28;20035;-51
2021/05/25 02:35:46;;;;;;;0.57;0.00;;;12.70;99.90;;;12.06;93.67;100441.53;4969176;28;20034;-52
2021/05/25 02:38:14;;;;;;;1.38;0.00;;;12.60;99.90;;;12.03;94.07;100443.63;4968473;28;20027;-51
2021/05/25 02:40:42;;;;;;;4.93;0.10;;;12.60;99.90;;;11.97;94.04;100445.06;4951063;28;20038;-51
2021/05/25 02:43:08;;;;;;;0.68;0.10;;;12.60;99.90;;;11.98;94.09;100451.94;4964593;28;20145;-52
2021/05/25 02:45:34;;;;;;;1.63;0.10;;;12.50;99.90;;;11.96;93.86;100448.66;4968012;28;20495;-51
2021/05/25 02:48:03;;;;;;;0.22;0.10;;;12.50;99.90;;;11.95;93.78;100445.22;4968830;28;20387;-51
2021/05/25 02:50:29;;;;;;;1.50;0.10;;;12.50;99.90;;;11.95;93.98;100441.78;4951360;28;20510;-47
2021/05/25 02:52:55;;;;;;;2.45;0.00;;;12.50;99.90;;;11.94;93.92;100442.78;4968017;28;20047;-48
2021/05/25 02:55:27;;;;;;;1.88;0.10;;;12.50;99.90;;;11.94;94.04;100455.81;4968499;28;20034;-47
2021/05/25 02:57:56;;;;;;;0.57;0.10;;;12.50;99.90;;;11.96;93.89;100446.88;4967897;28;20042;-50
2021/05/25 03:00:29;;;;;;;4.22;0.10;;;12.50;99.90;;;12.00;93.87;100465.66;4968785;28;20109;-53
2021/05/25 03:02:56;;;;;;;2.58;0.10;;;12.50;99.90;;;12.05;93.87;100459.97;4965980;28;20050;-49
2021/05/25 03:05:24;;;;;;;1.75;0.10;;;12.60;99.90;;;12.10;93.61;100460.34;4967123;28;20054;-48
2021/05/25 03:07:53;;;;;;;0.25;0.00;;;12.60;99.90;;;12.10;93.64;100461.16;4968464;28;20043;-47
2021/05/25 03:10:23;;;;;;;3.13;0.10;;;12.60;99.90;;;12.12;93.62;100469.66;4967988;28;20094;-50
2021/05/25 03:12:49;;;;;;;2.28;1.45;;;12.60;99.90;;;12.11;93.45;100470.63;4968128;28;20046;-50
2021/05/25 03:15:23;;;;;;;0.20;0.10;;;12.60;99.90;;;12.08;93.60;100467.50;4968313;28;20031;-52
2021/05/25 03:17:49;;;;;;;2.60;0.10;;;12.60;99.90;;;12.05;93.68;100471.25;4968138;28;20566;-51
2021/05/25 03:20:16;;;;;;;0.68;0.10;;;12.60;99.90;;;12.02;93.90;100474.16;4968182;28;20047;-49
2021/05/25 03:22:43;;;;;;;0.25;0.10;;;12.60;99.90;;;12.04;93.94;100487.88;4965127;28;20117;-50
2021/05/25 03:25:11;;;;;;;2.53;0.28;;;12.50;99.90;;;12.06;94.00;100491.16;4966759;28;20455;-49
2021/05/25 03:30:17;;;;;;;0.95;0.03;;;12.60;99.90;;;12.06;94.10;100485.94;4910187;28;20079;-46
2021/05/25 03:32:44;;;;;;;0.52;0.10;;;12.60;99.90;;;12.07;94.13;100487.56;4904122;29;20047;-47
2021/05/25 03:35:12;;;;;;;0.30;0.10;;;12.60;99.90;;;12.03;94.27;100491.47;4908242;29;20035;-48
2021/05/25 03:37:38;;;;;;;0.32;0.03;;;12.60;99.90;;;12.02;94.19;100489.00;4909099;29;20040;-53
2021/05/25 03:40:08;;;;;;;0.75;0.10;;;12.50;99.90;;;12.01;94.36;100498.63;4906598;29;20574;-48
2021/05/25 03:42:34;;;;;;;0.57;0.10;;;12.60;99.90;;;12.01;94.22;100501.25;4905491;29;20297;-49
2021/05/25 03:45:01;;;;;;;2.47;0.22;;;12.60;99.90;;;12.04;93.97;100505.34;4909828;29;20046;-49
2021/05/25 03:47:27;;;;;;;0.60;0.10;;;12.60;99.90;;;12.06;93.66;100511.22;4908534;29;20496;-48
2021/05/25 03:49:54;;;;;;;2.83;0.10;;;12.60;99.90;;;12.05;94.04;100510.41;4909264;29;20036;-51
2021/05/25 03:52:20;;;;;;;4.68;0.20;;;12.60;99.90;;;12.09;94.12;100510.94;4910915;29;20028;-53
2021/05/25 03:54:55;;;;;;;0.50;0.10;;;12.70;99.90;;;12.09;94.22;100516.16;4909525;29;21336;-53
2021/05/25 03:59:53;;;;;;;0.17;0.10;;;12.70;99.90;;;12.10;94.67;100520.41;4909278;29;20137;-49
2021/05/25 04:02:19;;;;;;;0.55;0.10;;;12.70;99.90;;;12.11;94.37;100520.25;4910670;29;20380;-49
2021/05/25 04:04:45;;;;;;;0.57;0.10;;;12.70;99.90;;;12.14;94.20;100522.56;4909245;29;20040;-49
2021/05/25 04:07:11;;;;;;;0.60;0.20;;;12.70;99.90;;;12.16;94.44;100523.22;4910553;29;20047;-48
2021/05/25 04:09:37;;;;;;;0.77;0.15;;;12.70;99.90;;;12.17;94.65;100524.88;4910243;29;20149;-46
2021/05/25 04:12:04;;;;;;;2.13;0.20;;;12.70;99.90;;;12.19;94.91;100516.88;4909251;29;20039;-46
2021/05/25 04:14:30;;;;;;;1.77;0.30;;;12.70;99.90;;;12.23;95.08;100529.47;4910956;29;20095;-47
2021/05/25 04:16:56;;;;;;;4.75;0.32;;;12.80;99.90;;;12.27;95.18;100533.44;4893996;29;20434;-48
2021/05/25 04:19:22;;;;;;;2.47;0.30;;;12.80;99.90;;;12.32;95.32;100538.16;4910560;29;20119;-49
2021/05/25 04:21:48;;;;;;;1.33;0.17;;;12.80;99.90;;;12.32;94.95;100538.16;4906508;29;20106;-49
2021/05/25 04:24:15;;;;;;;1.00;0.22;;;12.90;99.90;;;12.37;94.47;100535.09;4909203;29;20376;-48
2021/05/25 04:26:41;;;;;;;0.43;0.10;;;12.90;99.90;;;12.39;94.43;100540.97;4909942;29;20123;-51
2021/05/25 04:29:07;;;;;;;1.40;0.20;;;12.90;99.90;;;12.42;93.99;100527.59;4901160;29;20412;-49
2021/05/25 04:31:33;;;;;;;1.83;0.40;;;13.00;99.90;;;12.47;93.64;100536.63;4911255;29;20040;-49
2021/05/25 04:33:59;;;;;;;2.60;0.30;;;13.00;99.90;;;12.50;93.61;100538.94;4909043;29;20044;-50
2021/05/25 04:36:25;;;;;;;1.75;0.20;;;13.00;99.90;;;12.55;93.53;100544.50;4908950;29;20071;-48
2021/05/25 04:38:51;;;;;;;0.50;0.28;;;13.10;99.90;;;12.59;93.41;100547.63;4909067;29;20211;-51
2021/05/25 04:41:17;;;;;;;1.67;0.15;;;13.10;99.90;;;12.57;93.47;100558.25;4908782;29;20339;-49
2021/05/25 04:43:43;;;;;;;0.85;0.20;;;13.10;99.90;;;12.58;93.53;100554.66;4913597;29;20044;-51
2021/05/25 04:46:09;;;;;;;1.05;0.32;;;13.10;99.90;;;12.58;93.39;100566.91;4911625;29;20473;-49
2021/05/25 04:48:35;;;;;;;0.40;0.13;;;13.20;99.90;;;12.56;93.90;100572.28;4912962;29;20055;-52
2021/05/25 04:51:01;;;;;;;1.85;0.20;;;13.10;99.90;;;12.58;94.14;100570.34;4911289;29;20052;-49
2021/05/25 04:53:27;;;;;;;0.47;0.20;;;13.10;99.90;;;12.61;94.46;100574.44;4912849;29;20472;-49
2021/05/25 04:55:53;;;;;;;1.95;0.20;;;13.20;99.90;;;12.65;94.66;100575.78;4911673;29;20063;-50
2021/05/25 04:58:19;;;;;;;0.47;0.20;;;13.20;99.90;;;12.70;94.47;100581.34;4912802;29;20449;-49
2021/05/25 05:00:45;;;;;;;2.53;0.30;;;13.30;99.90;;;12.75;94.33;100580.91;4911187;29;20048;-51
2021/05/25 05:03:11;;;;;;;1.70;0.30;;;13.30;99.90;;;12.81;93.97;100580.25;4911644;29;20040;-52
2021/05/25 05:05:38;;;;;;;1.98;0.47;;;13.30;99.90;;;12.82;93.80;100589.72;4911530;29;20036;-50
2021/05/25 05:08:07;;;;;;;0.90;0.35;;;13.30;99.90;;;12.77;94.07;100592.81;4912028;29;20036;-47
2021/05/25 05:10:33;;;;;;;4.97;0.30;;;13.40;99.90;;;12.77;94.09;100592.00;4912078;29;20084;-50
2021/05/25 05:12:59;;;;;;;3.67;0.20;;;13.40;99.90;;;12.79;94.03;100592.66;4912152;29;20181;-52
2021/05/25 05:15:26;;;;;;;0.55;0.20;;;13.40;99.90;;;12.84;93.52;100599.06;4911026;29;20099;-47
2021/05/25 05:17:51;;;;;;;2.35;0.20;;;13.40;99.90;;;12.83;93.63;100599.22;4912594;29;20464;-49
2021/05/25 05:20:18;;;;;;;1.50;0.25;;;13.40;99.90;;;12.85;93.44;100607.72;4909374;29;20084;-50
2021/05/25 05:22:44;;;;;;;1.50;0.30;;;13.40;99.90;;;12.84;93.65;100604.28;4906791;29;20375;-46
2021/05/25 05:25:12;;;;;;;2.10;0.30;;;13.40;99.90;;;12.95;93.73;100593.56;4912034;29;20040;-46
2021/05/25 05:27:39;;;;;;;1.65;0.32;;;13.50;99.90;;;13.10;93.11;100598.22;4910623;29;20036;-45
2021/05/25 05:30:07;;;;;;;0.90;0.40;;;13.60;99.90;;;13.16;92.78;100602.84;4922792;29;20069;-50
2021/05/25 05:32:32;;;;;;;3.53;0.50;;;13.60;99.90;;;13.18;92.35;100604.31;4920242;29;20223;-48
2021/05/25 05:34:58;;;;;;;1.95;0.93;;;13.70;99.90;;;13.20;92.51;100617.25;4926392;29;20036;-50
2021/05/25 05:37:24;;;;;;;3.00;0.38;;;13.70;99.90;;;13.16;92.31;100621.16;4921488;29;20475;-50
2021/05/25 05:39:51;;;;;;;1.88;0.60;;;13.70;99.90;;;13.09;92.75;100617.50;4923379;29;20071;-49
2021/05/25 05:42:16;;;;;;;0.95;0.40;;;13.70;99.90;;;13.05;92.80;100608.31;4930361;29;20042;-48
2021/05/25 05:44:44;;;;;;;1.58;0.82;;;13.70;99.90;;;13.01;92.84;100615.66;4927380;29;20444;-50
2021/05/25 05:47:10;;;;;;;1.30;0.40;;;13.60;99.90;;;13.07;92.64;100612.41;4926483;29;20034;-49
2021/05/25 05:49:38;;;;;;;2.70;0.40;;;13.60;99.90;;;13.22;92.36;100625.75;4929328;29;20519;-52
2021/05/25 05:52:05;;;;;;;3.90;0.95;;;13.70;99.90;;;13.38;91.60;100631.03;4923936;29;20051;-50
2021/05/25 05:54:30;;;;;;;5.22;0.65;;;13.80;99.90;;;13.42;91.37;100627.13;4927958;29;20058;-50
2021/05/25 05:56:56;;;;;;;2.55;0.40;;;13.90;99.90;;;13.45;91.66;100636.47;4919873;29;20075;-49
2021/05/25 05:59:22;;;;;;;5.90;1.30;;;14.00;99.90;;;13.43;91.79;100635.78;4927223;29;20040;-49
2021/05/25 06:01:48;;;;;;;3.25;0.70;;;13.90;99.90;;;13.45;91.73;100641.69;4916251;29;20067;-49
2021/05/25 06:04:14;;;;;;;2.05;0.90;;;14.00;99.90;;;13.45;92.04;100647.75;4929269;29;20155;-53
2021/05/25 06:06:40;;;;;;;3.17;1.40;;;14.10;99.90;;;13.52;92.07;100646.13;4921928;29;20119;-50
2021/05/25 06:09:07;;;;;;;3.05;1.10;;;14.20;99.90;;;13.73;91.56;100640.44;4922991;29;20040;-47
2021/05/25 06:11:33;;;;;;;5.07;1.20;;;14.30;99.90;;;13.89;90.83;100639.66;4922074;29;20032;-49
2021/05/25 06:13:59;;;;;;;3.88;0.90;;;14.40;99.90;;;14.07;90.38;100639.53;4926199;29;20028;-47
2021/05/25 06:16:25;;;;;;;2.00;1.15;;;14.50;99.90;;;14.33;89.70;100637.53;4926993;29;20059;-48
2021/05/25 06:18:51;;;;;;;1.77;0.80;;;14.70;99.90;;;14.36;89.84;100642.47;4928435;29;20066;-48
2021/05/25 06:21:17;;;;;;;4.68;1.30;;;14.90;99.90;;;14.45;90.03;100643.31;4930098;29;20028;-50
2021/05/25 06:23:43;;;;;;;3.30;1.02;;;15.00;99.90;;;14.54;89.28;100655.44;4922167;29;20204;-50
2021/05/25 06:26:09;;;;;;;1.60;0.90;;;15.10;99.90;;;14.49;89.47;100652.50;4923272;29;20039;-47
2021/05/25 06:28:35;;;;;;;2.90;1.23;;;15.10;99.90;;;14.52;89.30;100652.97;4921480;29;20052;-47
2021/05/25 06:31:02;;;;;;;4.75;1.10;;;15.10;99.90;;;14.51;89.25;100650.53;4919796;29;20078;-47
2021/05/25 06:33:28;;;;;;;1.65;0.95;;;15.10;99.90;;;14.54;89.31;100648.38;4919349;29;20119;-53
2021/05/25 06:35:54;;;;;;;1.88;0.90;;;15.10;99.90;;;14.54;89.27;100651.00;4926740;29;20071;-48
2021/05/25 06:38:20;;;;;;;8.38;1.75;;;15.10;99.90;;;14.72;88.78;100655.22;4925454;29;20114;-52
2021/05/25 06:40:46;;;;;;;3.47;0.73;;;15.20;99.90;;;14.72;88.25;100648.19;4920684;29;20036;-50
2021/05/25 06:43:13;;;;;;;1.77;0.50;;;15.20;99.90;;;14.93;87.31;100645.84;4922266;29;20046;-53
2021/05/25 06:45:39;;;;;;;4.05;0.73;;;15.30;99.90;;;15.19;86.76;100644.75;4932396;29;20038;-54
2021/05/25 06:48:05;;;;;;;1.25;0.50;;;15.60;99.90;;;15.33;86.34;100636.19;4952197;23;20571;-52
2021/05/25 06:50:31;;;;;;;1.75;0.45;;;15.80;99.90;;;15.28;86.40;100635.88;4963911;28;20035;-55
2021/05/25 06:52:57;;;;;;;5.25;0.95;;;15.90;99.90;;;15.34;86.15;100635.19;4964964;28;20039;-52
2021/05/25 06:55:23;;;;;;;1.33;0.55;;;15.90;99.90;;;15.36;85.89;100638.47;4968726;28;20155;-52
2021/05/25 06:57:49;;;;;;;1.10;0.60;;;16.00;99.90;;;15.31;85.98;100642.59;4968300;28;20042;-51
2021/05/25 07:00:16;;;;;;;3.83;0.70;;;16.00;99.90;;;15.34;86.01;100648.31;4967543;28;20038;-48
2021/05/25 07:02:43;;;;;;;2.55;0.50;;;16.00;99.90;;;15.42;85.76;100650.09;4965530;28;20045;-48
2021/05/25 07:05:10;;;;;;;6.47;0.60;;;16.00;99.90;;;15.48;85.63;100652.84;4943637;28;20162;-48
2021/05/25 07:07:36;;;;;;;1.42;0.55;;;16.10;99.90;;;15.50;85.55;100663.19;4967348;28;20035;-48
2021/05/25 07:10:04;;;;;;;3.60;0.50;;;16.10;99.90;;;15.44;85.48;100664.69;4968466;28;20453;-48
2021/05/25 07:12:31;;;;;;;5.15;0.57;;;16.10;99.90;;;15.34;85.78;100668.50;4968617;28;20034;-48
2021/05/25 07:14:57;;;;;;;3.35;0.52;;;16.00;99.90;;;15.16;86.35;100673.97;4967971;28;20041;-49
2021/05/25 07:17:23;;;;;;;2.55;0.50;;;15.90;99.90;;;15.02;86.90;100667.63;4968244;28;20030;-49
2021/05/25 07:19:49;;;;;;;3.25;0.40;;;15.70;99.90;;;14.90;87.05;100667.16;4967611;28;20446;-48
2021/05/25 07:22:15;;;;;;;2.25;0.50;;;15.60;99.90;;;14.89;87.10;100668.16;4968135;28;20053;-47
2021/05/25 07:24:41;;;;;;;3.33;0.43;;;15.60;99.90;;;14.90;87.17;100672.41;4968314;28;20050;-47
2021/05/25 07:27:08;;;;;;;3.25;0.40;;;15.50;99.90;;;15.07;86.60;100673.19;4967744;28;20797;-48
2021/05/25 07:29:34;;;;;;;2.17;0.47;;;15.50;99.90;;;15.13;86.57;100674.31;4968457;28;20398;-47
2021/05/25 07:32:00;;;;;;;2.47;0.40;;;15.60;99.90;;;15.16;86.60;100681.84;4967746;28;20034;-47
2021/05/25 07:34:26;;;;;;;1.92;0.60;;;15.80;99.90;;;15.22;86.86;100683.78;4967865;28;20437;-47
2021/05/25 07:36:52;;;;;;;2.53;0.47;;;15.80;99.90;;;15.32;87.04;100680.97;4942187;28;20086;-49
2021/05/25 07:39:18;;;;;;;1.85;0.60;;;15.80;99.90;;;15.27;87.72;100689.34;4968136;28;20038;-47
2021/05/25 07:41:45;;;;;;;2.42;0.70;;;15.90;99.90;;;15.29;87.57;100692.63;4968110;28;20080;-52
2021/05/25 07:44:11;;;;;;;4.13;0.82;;;15.90;99.90;;;15.36;87.75;100698.03;4967299;28;20387;-48
2021/05/25 07:46:37;;;;;;;2.08;0.60;;;15.90;99.90;;;15.47;87.13;100693.22;4966496;28;20050;-48
2021/05/25 07:49:04;;;;;;;2.03;0.43;;;16.10;99.90;;;15.65;86.53;100698.25;4966238;28;20447;-47
2021/05/25 07:51:30;;;;;;;2.97;0.68;;;16.20;99.90;;;15.83;86.18;100700.63;4967911;28;20031;-47
2021/05/25 07:53:57;;;;;;;2.20;0.77;;;16.30;99.90;;;16.05;85.66;100704.28;4967586;28;20031;-47
2021/05/25 07:56:24;;;;;;;4.25;0.50;;;16.60;99.90;;;16.19;84.86;100706.13;4968038;28;20039;-47
2021/05/25 07:58:50;;;;;;;1.90;0.40;;;16.80;99.90;;;16.36;84.38;100704.22;4967757;28;20085;-47
2021/05/25 08:01:16;;;;;;;3.55;0.85;;;16.90;99.90;;;16.55;83.55;100704.53;4967263;28;20234;-48
2021/05/25 08:03:42;;;;;;;2.95;1.02;;;17.10;99.90;;;16.96;82.27;100711.28;4967672;28;20255;-47
2021/05/25 08:06:08;;;;;;;3.70;0.80;;;17.40;99.90;;;17.72;79.71;100717.97;4967247;28;20217;-47
2021/05/25 08:08:34;;;;;;;3.78;1.02;;;18.10;99.90;;;18.20;77.97;100706.75;4967279;28;20030;-47
2021/05/25 08:11:00;;;;;;;2.60;0.70;;;18.70;99.90;;;18.24;77.14;100712.47;4967145;28;20320;-47
2021/05/25 08:13:27;;;;;;;3.28;0.70;;;19.00;99.90;;;18.14;77.46;100704.84;4960285;28;20038;-47
2021/05/25 08:15:55;;;;;;;1.90;1.17;;;18.90;99.90;;;18.15;77.54;100716.22;4968572;28;20039;-47
2021/05/25 08:21:23;;;;;;;4.45;0.85;;;18.70;99.90;;;17.55;78.69;100719.97;4891676;29;20048;-51
2021/05/25 08:23:49;;;;;;;10.60;1.35;;;18.40;99.90;;;17.36;79.55;100710.00;4892302;29;20171;-47
2021/05/25 08:26:15;;;;;;;2.83;0.70;;;18.20;99.90;;;17.16;79.96;100709.72;4891772;29;20041;-52
2021/05/25 08:28:41;;;;;;;3.28;1.00;;;18.00;99.90;;;16.95;80.77;100709.66;4891352;29;20437;-49
2021/05/25 08:31:07;;;;;;;3.30;0.95;;;17.70;99.90;;;16.73;81.36;100716.59;4891875;29;20040;-48
2021/05/25 08:33:33;;;;;;;4.97;0.93;;;17.50;99.90;;;16.47;82.05;100709.06;4892085;29;20052;-49
2021/05/25 08:36:00;;;;;;;4.47;0.60;;;17.20;99.90;;;16.14;82.78;100709.28;4892115;29;20131;-47
2021/05/25 08:38:26;;;;;;;2.30;0.65;;;16.90;99.90;;;15.82;84.14;100706.88;4891598;29;20041;-47
2021/05/25 08:40:54;;;;;;;4.22;0.50;;;16.60;99.90;;;15.54;84.96;100702.06;4891758;29;20380;-48
2021/05/25 08:43:23;;;;;;;4.68;0.73;;;16.30;99.90;;;15.44;85.40;100717.19;4891309;29;20046;-49
2021/05/25 08:45:49;;;;;;;2.95;0.55;;;16.20;99.90;;;15.31;85.72;100709.03;4891791;29;20433;-48
2021/05/25 08:48:15;;;;;;;1.45;0.65;;;16.00;99.90;;;15.36;85.80;100713.78;4891180;29;20135;-48
2021/05/25 08:50:41;;;;;;;3.63;0.80;;;16.00;99.90;;;15.28;86.05;100715.44;4892081;29;20491;-48
2021/05/25 08:53:09;;;;;;;2.95;0.90;;;15.90;99.90;;;15.23;86.15;100722.19;4891961;29;20115;-49
2021/05/25 08:55:37;;;;;;;2.40;1.13;;;15.90;99.90;;;15.26;86.70;100725.28;4937154;28;20471;-49
2021/05/25 08:58:05;;;;;;;3.03;0.77;;;15.90;99.90;;;15.21;86.83;100726.78;4970600;28;20495;-49
2021/05/25 09:00:32;;;;;;;2.05;0.63;;;15.90;99.90;;;15.22;86.83;100723.97;4970489;28;20039;-48
2021/05/25 09:02:58;;;;;;;2.03;0.95;;;15.90;99.90;;;15.30;86.52;100720.53;4970908;28;20047;-49
2021/05/25 09:05:25;;;;;;;3.33;0.88;;;15.90;99.90;;;15.33;86.70;100727.25;4970296;28;20100;-50
2021/05/25 09:07:55;;;;;;;2.05;1.05;;;15.90;99.90;;;15.50;86.33;100726.22;4970201;28;20123;-46
2021/05/25 09:10:33;;;;;;;3.38;1.70;;;16.00;99.90;;;15.82;85.55;100725.25;4969901;28;20019;-49
2021/05/25 09:13:01;;;;;;;2.17;0.90;;;16.20;99.90;;;16.28;84.03;100726.13;4970519;28;20455;-51
2021/05/25 09:15:35;;;;;;;5.05;0.80;;;16.60;99.90;;;16.58;82.19;100727.03;4969624;28;20182;-47
2021/05/25 09:18:09;;;;;;;2.20;1.30;;;17.00;99.90;;;16.66;81.59;100721.75;4970446;28;20502;-48
2021/05/25 09:20:43;;;;;;;2.17;1.00;;;17.20;99.90;;;16.51;81.98;100720.88;4969851;28;20039;-48
2021/05/25 09:23:11;;;;;;;2.83;0.90;;;17.20;99.90;;;16.35;82.49;100720.97;4970356;28;20119;-49
2021/05/25 09:26:04;;;;;;;2.58;1.63;;;17.00;99.90;;;16.01;83.09;100726.66;4969703;28;20078;-48
2021/05/25 09:28:30;;;;;;;2.72;0.70;;;16.80;99.90;;;15.81;84.54;100727.06;4969530;28;20035;-48
2021/05/25 09:30:56;;;;;;;4.20;1.20;;;16.50;99.90;;;15.98;84.50;100722.56;4969927;28;20039;-48
2021/05/25 09:33:22;;;;;;;3.03;0.93;;;16.50;99.90;;;16.57;82.99;100728.03;4948995;28;20038;-49
2021/05/25 09:35:50;;;;;;;4.10;0.60;;;16.90;99.90;;;17.10;81.10;100721.81;4952590;28;20038;-47
2021/05/25 09:38:42;;;;;;;2.45;1.15;;;17.40;99.90;;;17.24;79.48;100714.91;4969772;28;20116;-53
2021/05/25 09:41:08;;;;;;;4.40;0.90;;;17.80;99.90;;;17.57;79.51;100725.88;4958592;28;20059;-52
2021/05/25 09:43:35;;;;;;;15.02;1.40;;;18.10;99.90;;;17.87;78.72;100724.03;4967888;28;20037;-47
2021/05/25 09:46:13;;;;;;;9.07;1.23;;;18.40;99.90;;;18.10;77.90;100723.88;4969718;28;20042;-49
2021/05/25 09:48:45;;;;;;;3.78;0.75;;;18.60;99.90;;;18.45;76.89;100724.81;4968721;28;20176;-49
2021/05/25 09:51:29;;;;;;;2.55;0.90;;;19.00;99.90;;;18.65;76.30;100717.91;4970034;28;20442;-52
2021/05/25 09:53:58;;;;;;;2.15;0.70;;;19.30;99.90;;;18.65;76.50;100717.91;4969090;28;20050;-51
2021/05/25 09:56:29;;;;;;;2.17;0.70;;;19.40;99.90;;;18.26;77.39;100723.63;4969718;28;20509;-48
2021/05/25 09:58:58;;;;;;;1.05;0.55;;;19.20;99.90;;;17.96;78.65;100730.03;4969513;28;20066;-48
2021/05/25 10:01:38;;;;;;;2.10;0.40;;;19.00;99.90;;;17.75;78.54;100736.06;4969371;28;20122;-50
2021/05/25 10:04:15;;;;;;;0.90;0.40;;;18.70;99.90;;;17.52;79.59;100741.41;4962408;28;20209;-48
2021/05/25 10:06:44;;;;;;;1.98;0.50;;;18.30;99.90;;;17.43;80.66;100747.78;4969293;28;20078;-46
2021/05/25 10:09:11;;;;;;;1.95;0.30;;;18.10;99.90;;;17.52;80.06;100744.03;4940925;29;20051;-50
2021/05/25 10:11:48;;;;;;;2.78;0.30;;;18.10;99.90;;;17.70;78.64;100743.69;4948789;28;20261;-50
2021/05/25 10:14:15;;;;;;;1.13;0.20;;;18.20;99.90;;;18.09;77.31;100738.88;4969317;28;20124;-50
2021/05/25 10:16:47;;;;;;;1.20;0.20;;;18.50;99.90;;;18.51;75.84;100737.25;4968699;28;20426;-48
2021/05/25 10:19:25;;;;;;;6.25;0.28;;;18.90;99.90;;;18.85;74.73;100740.00;4969298;28;20179;-47
2021/05/25 10:21:52;;;;;;;0.47;0.20;;;19.20;99.90;;;19.01;73.66;100728.31;4968902;28;20042;-50
2021/05/25 10:24:18;;;;;;;0.30;0.17;;;19.50;99.90;;;19.31;72.29;100739.50;4950793;28;20677;-47